createdAt,value
2022-12-06T00:01:44.299Z,79.19
2022-12-06T00:04:17.199Z,79.30
2022-12-06T00:06:51.764Z,79.31
2022-12-06T00:09:28.507Z,79.32
2022-12-06T00:11:58.315Z,79.35
2022-12-06T00:14:27.118Z,79.41
2022-12-06T00:16:55.542Z,79.50
2022-12-06T00:19:24.816Z,79.68
2022-12-06T00:21:53.053Z,79.94
2022-12-06T00:24:23.131Z,79.74
2022-12-06T00:26:52.185Z,79.60
2022-12-06T00:29:23.051Z,79.53
2022-12-06T00:31:51.673Z,79.65
2022-12-06T00:34:20.176Z,79.57
2022-12-06T00:36:49.068Z,79.58
2022-12-06T00:39:18.150Z,79.56
2022-12-06T00:41:47.143Z,79.51
2022-12-06T00:44:15.338Z,79.52
2022-12-06T00:46:43.599Z,79.57
2022-12-06T00:49:11.884Z,79.50
2022-12-06T00:51:41.077Z,79.50
2022-12-06T00:54:13.827Z,79.54
2022-12-06T00:56:42.244Z,79.68
2022-12-06T00:59:11.657Z,79.66
2022-12-06T01:01:41.401Z,79.72
2022-12-06T01:04:09.750Z,80.16
2022-12-06T01:06:38.524Z,80.13
2022-12-06T01:09:10.496Z,79.01
2022-12-06T01:11:39.063Z,79.35
2022-12-06T01:14:08.159Z,79.42
2022-12-06T01:16:36.567Z,79.21
2022-12-06T01:19:06.513Z,79.15
2022-12-06T01:21:35.039Z,79.23
2022-12-06T01:24:03.596Z,79.41
2022-12-06T01:26:34.091Z,79.52
2022-12-06T01:29:04.385Z,79.68
2022-12-06T01:31:38.272Z,79.97
2022-12-06T01:34:14.867Z,79.97
2022-12-06T01:36:43.740Z,79.97
2022-12-06T01:39:12.936Z,80.03
2022-12-06T01:41:42.186Z,80.12
2022-12-06T01:44:38.430Z,80.07
2022-12-06T01:47:14.126Z,80.10
2022-12-06T01:49:46.597Z,80.26
2022-12-06T01:52:15.800Z,80.27
2022-12-06T01:54:45.001Z,80.29
2022-12-06T01:57:15.988Z,80.49
2022-12-06T01:59:45.781Z,80.48
2022-12-06T02:02:14.564Z,80.90
2022-12-06T02:04:44.554Z,80.84
2022-12-06T02:07:13.861Z,80.56
2022-12-06T02:09:44.537Z,80.70
2022-12-06T02:12:15.737Z,80.61
2022-12-06T02:14:49.127Z,80.67
2022-12-06T02:17:23.439Z,80.88
2022-12-06T02:20:30.143Z,80.97
2022-12-06T02:23:01.266Z,80.98
2022-12-06T02:25:48.075Z,81.18
2022-12-06T02:28:37.856Z,81.03
2022-12-06T02:31:12.462Z,81.17
2022-12-06T02:33:57.508Z,81.33
2022-12-06T02:36:38.118Z,81.60
2022-12-06T02:39:16.334Z,81.80
2022-12-06T02:41:51.475Z,81.85
2022-12-06T02:44:30.239Z,81.86
2022-12-06T02:47:01.639Z,81.97
2022-12-06T02:49:36.064Z,82.09
2022-12-06T02:52:05.350Z,82.12
2022-12-06T02:54:36.713Z,82.14
2022-12-06T02:57:05.339Z,82.07
2022-12-06T02:59:36.017Z,82.20
2022-12-06T03:02:11.146Z,82.17
2022-12-06T03:05:08.084Z,82.30
2022-12-06T03:07:44.678Z,82.33
2022-12-06T03:10:47.167Z,82.47
2022-12-06T03:13:24.554Z,82.39
2022-12-06T03:16:13.565Z,82.32
2022-12-06T03:18:52.545Z,82.16
2022-12-06T03:21:58.415Z,81.94
2022-12-06T03:24:31.253Z,81.86
2022-12-06T03:27:04.271Z,81.84
2022-12-06T03:29:38.111Z,81.92
2022-12-06T03:32:09.980Z,81.90
2022-12-06T03:34:45.082Z,81.83
2022-12-06T03:37:18.476Z,81.92
2022-12-06T03:40:07.226Z,81.89
2022-12-06T03:42:36.222Z,81.84
2022-12-06T03:45:05.797Z,81.84
2022-12-06T03:47:38.718Z,81.83
2022-12-06T03:50:30.536Z,81.93
2022-12-06T03:53:01.466Z,82.04
2022-12-06T03:55:30.063Z,82.15
2022-12-06T03:57:58.750Z,82.24
2022-12-06T04:00:27.645Z,82.36
2022-12-06T04:02:56.547Z,82.45
2022-12-06T04:05:24.910Z,82.56
2022-12-06T04:07:53.227Z,82.66
2022-12-06T04:10:21.869Z,82.67
2022-12-06T04:13:02.858Z,82.71
2022-12-06T04:15:37.556Z,82.67
2022-12-06T04:18:14.361Z,82.70
2022-12-06T04:21:24.818Z,82.70
2022-12-06T04:23:53.088Z,82.75
2022-12-06T04:26:23.409Z,82.85
2022-12-06T04:29:12.012Z,82.93
2022-12-06T04:32:00.897Z,82.91
2022-12-06T04:34:48.333Z,82.93
2022-12-06T04:37:36.286Z,83.14
2022-12-06T04:40:06.403Z,83.03
2022-12-06T04:42:53.631Z,83.07
2022-12-06T04:45:22.201Z,82.95
2022-12-06T04:47:50.979Z,82.98
2022-12-06T04:50:19.762Z,82.93
2022-12-06T04:52:48.359Z,82.96
2022-12-06T04:55:17.255Z,83.04
2022-12-06T04:57:45.523Z,83.13
2022-12-06T05:00:14.702Z,83.09
2022-12-06T05:02:43.400Z,83.05
2022-12-06T05:05:12.588Z,83.08
2022-12-06T05:07:41.099Z,83.12
2022-12-06T05:10:10.291Z,83.18
2022-12-06T05:12:38.770Z,83.22
2022-12-06T05:15:07.931Z,83.40
2022-12-06T05:17:36.226Z,83.19
2022-12-06T05:20:05.233Z,83.25
2022-12-06T05:22:33.920Z,83.17
2022-12-06T05:25:02.297Z,83.14
2022-12-06T05:27:35.683Z,83.14
2022-12-06T05:30:06.086Z,83.22
2022-12-06T05:32:34.290Z,83.13
2022-12-06T05:35:02.488Z,83.21
2022-12-06T05:37:31.063Z,83.21
2022-12-06T05:40:00.052Z,83.26
2022-12-06T05:42:28.925Z,83.30
2022-12-06T05:44:57.426Z,83.32
2022-12-06T05:47:25.792Z,83.31
2022-12-06T05:49:53.963Z,83.33
2022-12-06T05:52:22.351Z,83.36
2022-12-06T05:54:50.720Z,83.43
2022-12-06T05:57:19.209Z,83.43
2022-12-06T05:59:48.139Z,83.22
2022-12-06T06:02:16.718Z,83.08
2022-12-06T06:04:45.272Z,82.58
2022-12-06T06:07:13.760Z,81.04
2022-12-06T06:09:42.247Z,80.09
2022-12-06T06:12:12.703Z,77.59
2022-12-06T06:14:41.464Z,74.15
2022-12-06T06:17:09.835Z,71.25
2022-12-06T06:19:38.307Z,72.64
2022-12-06T06:22:06.679Z,72.70
2022-12-06T06:24:37.010Z,71.34
2022-12-06T06:27:05.801Z,70.81
2022-12-06T06:29:34.357Z,73.26
2022-12-06T06:32:02.759Z,73.35
2022-12-06T06:34:31.151Z,69.69
2022-12-06T06:36:59.450Z,67.38
2022-12-06T06:39:27.783Z,66.20
2022-12-06T06:41:56.593Z,64.37
2022-12-06T06:44:25.280Z,62.27
2022-12-06T06:46:53.853Z,62.94
2022-12-06T06:49:22.123Z,60.08
2022-12-06T06:51:51.129Z,61.51
2022-12-06T06:54:19.514Z,62.41
2022-12-06T06:56:49.829Z,61.36
2022-12-06T06:59:18.216Z,57.25
2022-12-06T07:01:48.848Z,57.04
2022-12-06T07:04:19.117Z,58.68
2022-12-06T07:06:48.059Z,61.79
2022-12-06T07:09:16.743Z,66.05
2022-12-06T07:11:45.526Z,66.17
2022-12-06T07:14:14.555Z,65.51
2022-12-06T07:16:44.007Z,64.53
2022-12-06T07:19:12.778Z,63.77
2022-12-06T07:21:42.222Z,64.03
2022-12-06T07:24:11.988Z,64.38
2022-12-06T07:26:41.552Z,65.07
2022-12-06T07:29:11.118Z,63.49
2022-12-06T07:31:41.852Z,61.61
2022-12-06T07:34:11.198Z,62.28
2022-12-06T07:36:40.390Z,60.65
2022-12-06T07:39:14.321Z,61.67
2022-12-06T07:42:02.543Z,61.27
2022-12-06T07:45:01.414Z,58.10
2022-12-06T07:47:36.621Z,57.47
2022-12-06T07:50:16.009Z,62.39
2022-12-06T07:52:51.642Z,64.92
2022-12-06T07:55:20.362Z,64.41
2022-12-06T07:57:48.965Z,63.56
2022-12-06T08:00:18.186Z,63.17
2022-12-06T08:02:46.954Z,61.60
2022-12-06T08:05:15.749Z,61.06
2022-12-06T08:07:45.525Z,61.01
2022-12-06T08:10:14.429Z,60.73
2022-12-06T08:12:42.904Z,60.13
2022-12-06T08:15:15.931Z,60.45
2022-12-06T08:17:45.613Z,60.98
2022-12-06T08:20:13.993Z,61.23
2022-12-06T08:22:42.258Z,61.58
2022-12-06T08:25:10.651Z,61.78
2022-12-06T08:27:39.020Z,64.58
2022-12-06T08:30:09.450Z,63.41
2022-12-06T08:32:38.055Z,61.21
2022-12-06T08:35:08.371Z,60.52
2022-12-06T08:37:36.830Z,60.67
2022-12-06T08:40:06.265Z,60.86
2022-12-06T08:42:35.741Z,61.02
2022-12-06T08:45:05.473Z,61.35
2022-12-06T08:47:34.455Z,62.84
2022-12-06T08:50:04.078Z,63.08
2022-12-06T08:52:32.844Z,61.30
2022-12-06T08:55:01.384Z,61.23
2022-12-06T08:57:32.645Z,59.93
2022-12-06T09:00:02.182Z,58.14
2022-12-06T09:02:31.584Z,59.49
2022-12-06T09:05:01.170Z,62.65
2022-12-06T09:07:30.408Z,64.21
2022-12-06T09:09:59.841Z,65.22
2022-12-06T09:12:29.248Z,66.41
2022-12-06T09:14:58.795Z,67.67
2022-12-06T09:17:27.812Z,67.21
2022-12-06T09:20:03.774Z,64.97
2022-12-06T09:22:36.584Z,63.61
2022-12-06T09:25:06.070Z,64.70
2022-12-06T09:27:35.541Z,61.28
2022-12-06T09:30:05.357Z,60.47
2022-12-06T09:32:34.257Z,60.41
2022-12-06T09:35:02.830Z,60.19
2022-12-06T09:37:33.702Z,60.62
2022-12-06T09:40:12.093Z,60.48
2022-12-06T09:42:58.708Z,61.43
2022-12-06T09:45:44.625Z,60.77
2022-12-06T09:49:09.558Z,60.22
2022-12-06T09:51:44.165Z,59.21
2022-12-06T09:54:19.700Z,61.61
2022-12-06T09:57:19.362Z,63.93
2022-12-06T10:00:07.473Z,62.15
2022-12-06T10:03:15.950Z,61.46
2022-12-06T10:06:01.873Z,59.33
2022-12-06T10:08:35.092Z,60.74
2022-12-06T10:11:16.170Z,62.58
2022-12-06T10:14:18.490Z,64.78
2022-12-06T10:17:08.721Z,63.10
2022-12-06T10:19:57.561Z,62.34
2022-12-06T10:22:35.615Z,61.82
2022-12-06T10:25:13.612Z,61.58
2022-12-06T10:27:53.581Z,60.23
2022-12-06T10:30:22.246Z,58.99
2022-12-06T10:33:06.790Z,61.70
2022-12-06T10:35:50.671Z,64.35
2022-12-06T10:38:40.512Z,64.15
2022-12-06T10:41:34.406Z,63.15
2022-12-06T10:44:06.351Z,60.81
2022-12-06T10:47:05.279Z,60.31
2022-12-06T10:49:43.960Z,60.17
2022-12-06T10:52:39.588Z,60.73
2022-12-06T10:55:12.068Z,58.72
2022-12-06T10:57:44.582Z,61.63
2022-12-06T11:00:17.829Z,64.55
2022-12-06T11:03:01.873Z,64.48
2022-12-06T11:05:41.570Z,64.67
2022-12-06T11:08:21.764Z,64.85
2022-12-06T11:10:52.426Z,63.92
2022-12-06T11:13:37.694Z,63.31
2022-12-06T11:16:06.837Z,64.27
2022-12-06T11:18:37.217Z,63.94
2022-12-06T11:21:25.519Z,64.27
2022-12-06T11:24:12.670Z,65.10
2022-12-06T11:26:47.511Z,64.09
2022-12-06T11:29:17.117Z,64.86
2022-12-06T11:31:48.553Z,66.45
2022-12-06T11:34:22.873Z,67.64
2022-12-06T11:36:59.554Z,69.43
2022-12-06T11:39:31.770Z,69.96
2022-12-06T11:42:04.609Z,70.80
2022-12-06T11:44:49.284Z,71.52
2022-12-06T11:47:22.245Z,72.19
2022-12-06T11:49:54.712Z,72.04
2022-12-06T11:52:46.054Z,70.93
2022-12-06T11:55:19.927Z,69.99
2022-12-06T11:57:51.199Z,69.91
2022-12-06T12:00:20.679Z,69.77
2022-12-06T12:02:52.119Z,68.62
2022-12-06T12:05:22.683Z,67.99
2022-12-06T12:08:02.418Z,69.48
2022-12-06T12:10:38.759Z,70.51
2022-12-06T12:13:31.772Z,70.39
2022-12-06T12:16:04.258Z,69.43
2022-12-06T12:18:36.869Z,68.28
2022-12-06T12:21:07.326Z,68.63
2022-12-06T12:23:44.411Z,69.04
2022-12-06T12:26:21.518Z,69.05
2022-12-06T12:29:16.349Z,69.13
2022-12-06T12:31:55.503Z,68.91
2022-12-06T12:34:31.308Z,69.28
2022-12-06T12:37:04.475Z,68.93
2022-12-06T12:39:45.373Z,68.19
2022-12-06T12:42:33.261Z,68.51
2022-12-06T12:45:05.591Z,68.47
2022-12-06T12:47:34.140Z,68.04
2022-12-06T12:50:15.196Z,67.48
2022-12-06T12:52:44.401Z,67.42
2022-12-06T12:55:12.785Z,68.25
2022-12-06T12:57:43.722Z,68.52
2022-12-06T13:00:16.732Z,69.40
2022-12-06T13:02:50.461Z,69.86
2022-12-06T13:05:45.107Z,70.00
2022-12-06T13:08:19.098Z,70.65
2022-12-06T13:10:57.075Z,70.68
2022-12-06T13:13:58.267Z,69.72
2022-12-06T13:16:36.843Z,68.86
2022-12-06T13:19:05.311Z,69.03
2022-12-06T13:21:39.744Z,69.00
2022-12-06T13:24:11.162Z,69.39
2022-12-06T13:26:59.910Z,68.75
2022-12-06T13:29:34.945Z,69.87
2022-12-06T13:32:19.572Z,70.51
2022-12-06T13:34:57.499Z,71.45
2022-12-06T13:37:44.112Z,72.46
2022-12-06T13:40:37.784Z,72.07
2022-12-06T13:43:26.425Z,70.91
2022-12-06T13:46:07.421Z,69.43
2022-12-06T13:48:48.069Z,67.59
2022-12-06T13:51:39.297Z,67.44
2022-12-06T13:54:15.741Z,66.42
2022-12-06T13:56:44.244Z,66.08
2022-12-06T13:59:12.408Z,64.90
2022-12-06T14:01:58.910Z,64.90
2022-12-06T14:09:49.979Z,64.56
2022-12-06T14:12:19.246Z,64.92
2022-12-06T14:14:59.136Z,64.87
2022-12-06T14:20:34.156Z,65.91
2022-12-06T14:23:02.735Z,66.62
2022-12-06T14:25:31.718Z,66.91
2022-12-06T14:28:12.963Z,67.72
2022-12-06T14:30:44.575Z,68.10
2022-12-06T14:33:23.395Z,70.41
2022-12-06T14:35:54.323Z,70.46
2022-12-06T14:38:29.659Z,71.02
2022-12-06T14:41:16.873Z,69.68
2022-12-06T14:43:48.837Z,71.09
2022-12-06T14:46:20.930Z,72.11
2022-12-06T14:49:09.061Z,73.10
2022-12-06T14:51:41.353Z,73.66
2022-12-06T14:54:34.070Z,74.52
2022-12-06T14:57:04.788Z,74.40
2022-12-06T15:00:13.143Z,75.20
2022-12-06T15:02:30.428Z,74.73
2022-12-06T15:05:00.232Z,74.39
2022-12-06T15:07:43.343Z,74.15
2022-12-06T15:10:25.641Z,74.30
2022-12-06T15:12:57.021Z,74.21
2022-12-06T15:15:36.521Z,73.18
2022-12-06T15:18:27.044Z,72.23
2022-12-06T15:20:55.952Z,72.36
2022-12-06T15:23:34.316Z,71.90
2022-12-06T15:26:05.925Z,71.54
2022-12-06T15:28:36.041Z,72.49
2022-12-06T15:31:06.959Z,71.59
2022-12-06T15:33:35.661Z,71.27
2022-12-06T15:36:05.618Z,71.78
2022-12-06T15:38:34.357Z,73.63
2022-12-06T15:41:03.916Z,75.11
2022-12-06T15:43:35.740Z,74.95
2022-12-06T15:46:05.593Z,75.48
2022-12-06T15:48:37.634Z,75.82
2022-12-06T15:51:10.509Z,75.81
2022-12-06T15:53:41.484Z,74.85
2022-12-06T15:56:15.895Z,75.50
2022-12-06T15:58:47.081Z,75.26
2022-12-06T16:01:15.861Z,75.39
2022-12-06T16:03:45.225Z,75.79
2022-12-06T16:06:15.603Z,76.06
2022-12-06T16:08:45.541Z,77.52
2022-12-06T16:11:18.090Z,78.14
2022-12-06T16:13:47.300Z,78.74
2022-12-06T16:16:16.898Z,79.43
2022-12-06T16:18:46.786Z,79.61
2022-12-06T16:21:26.458Z,79.10
2022-12-06T16:24:12.928Z,79.18
2022-12-06T16:26:45.502Z,79.46
2022-12-06T16:29:21.026Z,79.95
2022-12-06T16:31:51.920Z,79.55
2022-12-06T16:34:21.900Z,80.21
2022-12-06T16:37:02.217Z,80.25
2022-12-06T16:39:34.089Z,80.42
2022-12-06T16:42:04.696Z,80.48
2022-12-06T16:44:33.186Z,80.61
2022-12-06T16:47:02.032Z,80.68
2022-12-06T16:49:49.254Z,80.64
2022-12-06T16:52:18.780Z,80.70
2022-12-06T16:54:47.965Z,80.80
2022-12-06T16:57:19.911Z,80.93
2022-12-06T16:59:48.722Z,80.95
2022-12-06T17:02:31.959Z,80.94
2022-12-06T17:05:06.478Z,80.89
2022-12-06T17:07:37.581Z,80.83
2022-12-06T17:10:08.790Z,80.88
2022-12-06T17:12:39.286Z,80.89
2022-12-06T17:15:12.354Z,80.99
2022-12-06T17:17:42.816Z,81.04
2022-12-06T17:20:14.857Z,81.08
2022-12-06T17:22:45.719Z,81.02
2022-12-06T17:25:16.913Z,81.06
2022-12-06T17:27:47.015Z,80.92
2022-12-06T17:30:20.203Z,81.07
2022-12-06T17:32:49.155Z,81.06
2022-12-06T17:35:18.526Z,81.08
2022-12-06T17:37:47.443Z,81.05
2022-12-06T17:40:16.844Z,80.99
2022-12-06T17:43:04.076Z,81.02
2022-12-06T17:45:33.407Z,81.02
2022-12-06T17:48:02.064Z,81.04
2022-12-06T17:50:31.149Z,81.09
2022-12-06T17:53:01.213Z,81.08
2022-12-06T17:55:30.620Z,81.12
2022-12-06T17:57:59.549Z,81.12
2022-12-06T18:00:29.433Z,81.15
2022-12-06T18:02:58.097Z,81.15
2022-12-06T18:05:26.735Z,81.20
2022-12-06T18:07:55.606Z,81.24
2022-12-06T18:10:24.658Z,81.23
2022-12-06T18:12:53.380Z,81.28
2022-12-06T18:15:42.123Z,81.38
2022-12-06T18:18:11.054Z,81.41
2022-12-06T18:20:42.054Z,81.43
2022-12-06T18:23:11.093Z,81.46
2022-12-06T18:25:41.471Z,81.54
2022-12-06T18:28:10.375Z,81.56
2022-12-06T18:30:39.098Z,81.59
2022-12-06T18:33:08.767Z,81.69
2022-12-06T18:35:37.350Z,81.56
2022-12-06T18:38:08.251Z,81.65
2022-12-06T18:40:38.585Z,81.63
2022-12-06T18:43:09.200Z,81.80
2022-12-06T18:45:41.010Z,81.80
2022-12-06T18:48:10.514Z,81.80
2022-12-06T18:50:41.148Z,81.76
2022-12-06T18:53:11.370Z,81.87
2022-12-06T18:55:43.224Z,81.93
2022-12-06T18:58:12.486Z,82.01
2022-12-06T19:10:28.469Z,82.25
2022-12-06T19:17:17.950Z,82.32
2022-12-06T19:21:04.696Z,82.30
2022-12-06T19:25:05.590Z,82.40
2022-12-06T19:28:03.396Z,82.23
2022-12-06T19:30:32.827Z,82.17
2022-12-06T19:33:30.575Z,82.14
2022-12-06T19:36:47.994Z,82.25
2022-12-06T19:43:45.274Z,81.93
2022-12-06T19:46:50.070Z,82.01
2022-12-06T20:00:24.567Z,83.83
2022-12-06T20:07:32.486Z,82.89
2022-12-06T20:10:35.024Z,82.38
2022-12-06T20:13:06.855Z,81.86
2022-12-06T20:20:18.042Z,81.82
2022-12-06T20:22:50.223Z,81.96
2022-12-06T20:25:42.197Z,82.10
2022-12-06T20:28:13.801Z,82.35
2022-12-06T20:30:55.403Z,82.56
2022-12-06T20:33:58.466Z,82.71
2022-12-06T20:40:03.198Z,83.00
2022-12-06T20:43:24.693Z,82.88
2022-12-06T20:46:42.702Z,82.83
2022-12-06T20:54:04.510Z,82.17
2022-12-06T21:01:50.676Z,82.92
2022-12-06T21:04:19.746Z,82.96
2022-12-06T21:06:48.545Z,83.03
2022-12-06T21:09:17.187Z,83.09
2022-12-06T21:11:46.208Z,83.13
2022-12-06T21:14:16.727Z,83.14
2022-12-06T21:16:45.712Z,83.19
2022-12-06T21:19:18.355Z,83.15
2022-12-06T21:21:52.172Z,83.19
2022-12-06T21:24:23.447Z,83.23
2022-12-06T21:26:52.272Z,83.27
2022-12-06T21:29:30.140Z,83.33
2022-12-06T21:32:03.412Z,83.38
2022-12-06T21:34:32.982Z,83.46
2022-12-06T21:37:02.510Z,83.47
2022-12-06T21:39:31.736Z,83.54
2022-12-06T21:42:01.021Z,83.67
2022-12-06T21:44:29.614Z,83.75
2022-12-06T21:46:58.946Z,83.87
2022-12-06T21:49:28.718Z,83.87
2022-12-06T21:52:03.163Z,83.89
2022-12-06T21:54:36.128Z,83.95
2022-12-06T21:57:04.515Z,83.95
2022-12-06T21:59:33.086Z,83.99
2022-12-06T22:02:02.552Z,84.00
2022-12-06T22:04:31.487Z,84.00
2022-12-06T22:07:00.283Z,83.96
2022-12-06T22:09:28.673Z,83.88
2022-12-06T22:11:58.602Z,83.80
2022-12-06T22:14:27.046Z,83.84
2022-12-06T22:16:55.339Z,83.92
2022-12-06T22:19:23.716Z,83.95
2022-12-06T22:21:55.570Z,84.02
2022-12-06T22:24:24.468Z,84.10
2022-12-06T22:26:53.446Z,84.17
2022-12-06T22:29:21.727Z,84.18
2022-12-06T22:31:49.926Z,84.15
2022-12-06T22:34:19.210Z,84.16
2022-12-06T22:36:48.164Z,84.20
2022-12-06T22:39:16.687Z,84.20
2022-12-06T22:41:45.466Z,84.19
2022-12-06T22:44:13.942Z,84.19
2022-12-06T22:46:42.374Z,84.22
2022-12-06T22:49:16.403Z,84.14
2022-12-06T22:51:46.332Z,84.09
2022-12-06T22:54:15.147Z,84.02
2022-12-06T22:56:49.154Z,83.97
2022-12-06T22:59:17.928Z,83.94
2022-12-06T23:01:46.178Z,83.95
2022-12-06T23:04:15.305Z,83.92
2022-12-06T23:06:43.802Z,83.82
2022-12-06T23:09:15.898Z,83.88
2022-12-06T23:11:44.175Z,83.95
2022-12-06T23:14:12.649Z,84.02
2022-12-06T23:16:43.915Z,84.12
2022-12-06T23:19:13.375Z,84.09
2022-12-06T23:21:42.726Z,83.95
2022-12-06T23:24:13.098Z,83.98
2022-12-06T23:26:44.349Z,83.84
2022-12-06T23:29:13.533Z,83.84
2022-12-06T23:31:44.125Z,83.87
2022-12-06T23:34:18.790Z,83.90
2022-12-06T23:36:47.385Z,83.93
2022-12-06T23:39:16.175Z,84.00
2022-12-06T23:41:44.858Z,84.11
2022-12-06T23:44:13.633Z,84.17
2022-12-06T23:46:43.528Z,84.26
2022-12-06T23:49:19.914Z,84.33
2022-12-06T23:51:49.743Z,84.43
2022-12-06T23:54:18.738Z,84.51
2022-12-06T23:56:47.717Z,84.47
2022-12-06T23:59:17.000Z,84.50
